KLEX Airport Diagram

We have created a template for each of the higher traffic airports in the vZID airspace. They include KCMH, KCRW, KCVG, KDAY, KIND, KLEX and KSDF. You wil find usefull information including the airport diagram, weather, and specific airport procedures.

KLEX Weather

[Source: ADDS]
METAR
KLEX 261554Z 00000KT 10SM CLR 28/18 A3016 RMK AO2 SLP204 T02780183 =
TAF
KLEX 261120Z 2612/2712 VRB04KT P6SM SKC =
JSN Epic template designed by JoomlaShine.com